sensor_id;sensor_type;location;lat;lon;timestamp;temperature;humidity
37378;DHT22;23248;48.120;14.854;2022-12-26T00:01:41;2.10;99.90
37378;DHT22;23248;48.120;14.854;2022-12-26T00:04:06;2.10;99.90
37378;DHT22;23248;48.120;14.854;2022-12-26T00:06:32;2.10;99.90
37378;DHT22;23248;48.120;14.854;2022-12-26T00:08:58;2.10;99.90
37378;DHT22;23248;48.120;14.854;2022-12-26T00:11:24;2.20;99.90
37378;DHT22;23248;48.120;14.854;2022-12-26T00:13:53;2.20;99.90
37378;DHT22;23248;48.120;14.854;2022-12-26T00:16:19;2.10;99.90
37378;DHT22;23248;48.120;14.854;2022-12-26T00:18:45;2.10;99.90
37378;DHT22;23248;48.120;14.854;2022-12-26T00:21:12;2.00;99.90
37378;DHT22;23248;48.120;14.854;2022-12-26T00:23:38;2.00;99.90
37378;DHT22;23248;48.120;14.854;2022-12-26T00:26:08;2.10;99.90
37378;DHT22;23248;48.120;14.854;2022-12-26T00:28:34;2.10;99.90
37378;DHT22;23248;48.120;14.854;2022-12-26T00:31:05;2.20;99.90
37378;DHT22;23248;48.120;14.854;2022-12-26T00:33:35;2.10;99.90
37378;DHT22;23248;48.120;14.854;2022-12-26T00:36:04;2.20;99.90
37378;DHT22;23248;48.120;14.854;2022-12-26T00:38:30;2.30;99.90
37378;DHT22;23248;48.120;14.854;2022-12-26T00:40:55;2.30;99.90
37378;DHT22;23248;48.120;14.854;2022-12-26T00:43:21;2.30;99.90
37378;DHT22;23248;48.120;14.854;2022-12-26T00:45:47;2.20;99.90
37378;DHT22;23248;48.120;14.854;2022-12-26T00:48:12;2.20;99.90
37378;DHT22;23248;48.120;14.854;2022-12-26T00:50:38;2.30;99.90
37378;DHT22;23248;48.120;14.854;2022-12-26T00:53:04;2.40;99.90
37378;DHT22;23248;48.120;14.854;2022-12-26T00:55:29;2.40;99.90
37378;DHT22;23248;48.120;14.854;2022-12-26T00:57:55;2.40;99.90
37378;DHT22;23248;48.120;14.854;2022-12-26T01:00:20;2.50;99.90
37378;DHT22;23248;48.120;14.854;2022-12-26T01:02:46;2.50;99.90
37378;DHT22;23248;48.120;14.854;2022-12-26T01:05:12;2.50;99.90
37378;DHT22;23248;48.120;14.854;2022-12-26T01:07:38;2.40;99.90
37378;DHT22;23248;48.120;14.854;2022-12-26T01:10:04;2.30;99.90
37378;DHT22;23248;48.120;14.854;2022-12-26T01:12:30;2.30;99.90
37378;DHT22;23248;48.120;14.854;2022-12-26T01:14:56;2.20;99.90
37378;DHT22;23248;48.120;14.854;2022-12-26T01:17:22;2.20;99.90
37378;DHT22;23248;48.120;14.854;2022-12-26T01:19:47;2.30;99.90
37378;DHT22;23248;48.120;14.854;2022-12-26T01:22:13;2.20;99.90
37378;DHT22;23248;48.120;14.854;2022-12-26T01:24:39;2.20;99.90
37378;DHT22;23248;48.120;14.854;2022-12-26T01:27:04;2.20;99.90
37378;DHT22;23248;48.120;14.854;2022-12-26T01:29:30;2.20;99.90
37378;DHT22;23248;48.120;14.854;2022-12-26T01:31:55;2.20;99.90
37378;DHT22;23248;48.120;14.854;2022-12-26T01:34:21;2.20;99.90
37378;DHT22;23248;48.120;14.854;2022-12-26T01:36:47;2.30;99.90
37378;DHT22;23248;48.120;14.854;2022-12-26T01:39:13;2.30;99.90
37378;DHT22;23248;48.120;14.854;2022-12-26T01:41:38;2.20;99.90
37378;DHT22;23248;48.120;14.854;2022-12-26T01:44:06;2.20;99.90
37378;DHT22;23248;48.120;14.854;2022-12-26T01:49:08;2.30;99.90
37378;DHT22;23248;48.120;14.854;2022-12-26T01:51:38;2.40;99.90
37378;DHT22;23248;48.120;14.854;2022-12-26T01:54:07;2.30;99.90
37378;DHT22;23248;48.120;14.854;2022-12-26T01:56:35;2.10;99.90
37378;DHT22;23248;48.120;14.854;2022-12-26T01:59:04;2.10;99.90
37378;DHT22;23248;48.120;14.854;2022-12-26T02:01:30;2.00;99.90
37378;DHT22;23248;48.120;14.854;2022-12-26T02:03:57;2.00;99.90
37378;DHT22;23248;48.120;14.854;2022-12-26T02:06:42;2.00;99.90
37378;DHT22;23248;48.120;14.854;2022-12-26T02:09:07;1.90;99.90
37378;DHT22;23248;48.120;14.854;2022-12-26T02:11:34;2.00;99.90
37378;DHT22;23248;48.120;14.854;2022-12-26T02:14:00;2.00;99.90
37378;DHT22;23248;48.120;14.854;2022-12-26T02:16:26;2.10;99.90
37378;DHT22;23248;48.120;14.854;2022-12-26T02:18:52;2.00;99.90
37378;DHT22;23248;48.120;14.854;2022-12-26T02:36:54;1.80;99.90
37378;DHT22;23248;48.120;14.854;2022-12-26T02:42:30;1.80;99.90
37378;DHT22;23248;48.120;14.854;2022-12-26T02:50:20;1.80;99.90
37378;DHT22;23248;48.120;14.854;2022-12-26T02:55:55;1.80;99.90
37378;DHT22;23248;48.120;14.854;2022-12-26T02:58:44;1.90;99.90
37378;DHT22;23248;48.120;14.854;2022-12-26T03:01:33;1.90;99.90
37378;DHT22;23248;48.120;14.854;2022-12-26T03:04:19;1.90;99.90
37378;DHT22;23248;48.120;14.854;2022-12-26T03:07:06;2.00;99.90
37378;DHT22;23248;48.120;14.854;2022-12-26T03:09:54;2.00;99.90
37378;DHT22;23248;48.120;14.854;2022-12-26T03:12:42;2.00;99.90
37378;DHT22;23248;48.120;14.854;2022-12-26T03:15:28;2.00;99.90
37378;DHT22;23248;48.120;14.854;2022-12-26T03:18:15;2.00;99.90
37378;DHT22;23248;48.120;14.854;2022-12-26T03:20:42;2.00;99.90
37378;DHT22;23248;48.120;14.854;2022-12-26T03:23:12;2.10;99.90
37378;DHT22;23248;48.120;14.854;2022-12-26T03:25:41;2.20;99.90
37378;DHT22;23248;48.120;14.854;2022-12-26T03:28:27;2.10;99.90
37378;DHT22;23248;48.120;14.854;2022-12-26T03:30:53;2.00;99.90
37378;DHT22;23248;48.120;14.854;2022-12-26T03:33:24;2.00;99.90
37378;DHT22;23248;48.120;14.854;2022-12-26T03:36:14;2.00;99.90
37378;DHT22;23248;48.120;14.854;2022-12-26T03:38:52;2.00;99.90
37378;DHT22;23248;48.120;14.854;2022-12-26T03:41:26;2.00;99.90
37378;DHT22;23248;48.120;14.854;2022-12-26T03:44:29;1.90;99.90
37378;DHT22;23248;48.120;14.854;2022-12-26T03:47:22;2.00;99.90
37378;DHT22;23248;48.120;14.854;2022-12-26T03:50:14;2.00;99.90
37378;DHT22;23248;48.120;14.854;2022-12-26T03:53:04;1.90;99.90
37378;DHT22;23248;48.120;14.854;2022-12-26T03:55:57;1.80;99.90
37378;DHT22;23248;48.120;14.854;2022-12-26T04:01:44;1.60;99.90
37378;DHT22;23248;48.120;14.854;2022-12-26T04:04:31;1.60;99.90
37378;DHT22;23248;48.120;14.854;2022-12-26T04:07:19;1.60;99.90
37378;DHT22;23248;48.120;14.854;2022-12-26T04:10:14;1.60;99.90
37378;DHT22;23248;48.120;14.854;2022-12-26T04:13:00;1.60;99.90
37378;DHT22;23248;48.120;14.854;2022-12-26T04:15:53;1.60;99.90
37378;DHT22;23248;48.120;14.854;2022-12-26T04:21:53;1.60;99.90
37378;DHT22;23248;48.120;14.854;2022-12-26T04:24:47;1.60;99.90
37378;DHT22;23248;48.120;14.854;2022-12-26T04:27:33;1.60;99.90
37378;DHT22;23248;48.120;14.854;2022-12-26T04:30:17;1.60;99.90
37378;DHT22;23248;48.120;14.854;2022-12-26T04:33:06;1.60;99.90
37378;DHT22;23248;48.120;14.854;2022-12-26T04:35:58;1.50;99.90
37378;DHT22;23248;48.120;14.854;2022-12-26T04:38:46;1.60;99.90
37378;DHT22;23248;48.120;14.854;2022-12-26T04:41:31;1.60;99.90
37378;DHT22;23248;48.120;14.854;2022-12-26T04:44:16;1.60;99.90
37378;DHT22;23248;48.120;14.854;2022-12-26T04:46:44;1.60;99.90
37378;DHT22;23248;48.120;14.854;2022-12-26T04:49:11;1.60;99.90
37378;DHT22;23248;48.120;14.854;2022-12-26T04:51:55;1.60;99.90
37378;DHT22;23248;48.120;14.854;2022-12-26T04:54:21;1.60;99.90
37378;DHT22;23248;48.120;14.854;2022-12-26T04:56:47;1.60;99.90
37378;DHT22;23248;48.120;14.854;2022-12-26T04:59:13;1.50;99.90
37378;DHT22;23248;48.120;14.854;2022-12-26T05:01:39;1.50;99.90
37378;DHT22;23248;48.120;14.854;2022-12-26T05:04:23;1.50;99.90
37378;DHT22;23248;48.120;14.854;2022-12-26T05:07:49;1.50;99.90
37378;DHT22;23248;48.120;14.854;2022-12-26T05:10:18;1.50;99.90
37378;DHT22;23248;48.120;14.854;2022-12-26T05:12:44;1.30;99.90
37378;DHT22;23248;48.120;14.854;2022-12-26T05:15:10;1.40;99.90
37378;DHT22;23248;48.120;14.854;2022-12-26T05:17:36;1.30;99.90
37378;DHT22;23248;48.120;14.854;2022-12-26T05:20:20;1.30;99.90
37378;DHT22;23248;48.120;14.854;2022-12-26T05:23:03;1.30;99.90
37378;DHT22;23248;48.120;14.854;2022-12-26T05:25:48;1.30;99.90
37378;DHT22;23248;48.120;14.854;2022-12-26T05:28:32;1.30;99.90
37378;DHT22;23248;48.120;14.854;2022-12-26T05:31:14;1.30;99.90
37378;DHT22;23248;48.120;14.854;2022-12-26T05:33:40;1.30;99.90
37378;DHT22;23248;48.120;14.854;2022-12-26T05:36:25;1.30;99.90
37378;DHT22;23248;48.120;14.854;2022-12-26T05:38:52;1.30;99.90
37378;DHT22;23248;48.120;14.854;2022-12-26T05:41:17;1.30;99.90
37378;DHT22;23248;48.120;14.854;2022-12-26T05:43:43;1.30;99.90
37378;DHT22;23248;48.120;14.854;2022-12-26T05:46:09;1.30;99.90
37378;DHT22;23248;48.120;14.854;2022-12-26T05:48:34;1.20;99.90
37378;DHT22;23248;48.120;14.854;2022-12-26T05:51:00;1.20;99.90
37378;DHT22;23248;48.120;14.854;2022-12-26T05:53:27;1.20;99.90
37378;DHT22;23248;48.120;14.854;2022-12-26T05:55:53;1.20;99.90
37378;DHT22;23248;48.120;14.854;2022-12-26T05:58:18;1.20;99.90
37378;DHT22;23248;48.120;14.854;2022-12-26T06:00:44;1.30;99.90
37378;DHT22;23248;48.120;14.854;2022-12-26T06:03:10;1.30;99.90
37378;DHT22;23248;48.120;14.854;2022-12-26T06:05:35;1.30;99.90
37378;DHT22;23248;48.120;14.854;2022-12-26T06:08:01;1.20;99.90
37378;DHT22;23248;48.120;14.854;2022-12-26T06:10:27;1.20;99.90
37378;DHT22;23248;48.120;14.854;2022-12-26T06:12:58;1.20;99.90
37378;DHT22;23248;48.120;14.854;2022-12-26T06:15:23;1.20;99.90
37378;DHT22;23248;48.120;14.854;2022-12-26T06:17:49;1.20;99.90
37378;DHT22;23248;48.120;14.854;2022-12-26T06:20:14;1.20;99.90
37378;DHT22;23248;48.120;14.854;2022-12-26T06:22:40;1.30;99.90
37378;DHT22;23248;48.120;14.854;2022-12-26T06:25:06;1.20;99.90
37378;DHT22;23248;48.120;14.854;2022-12-26T06:27:32;1.30;99.90
37378;DHT22;23248;48.120;14.854;2022-12-26T06:29:58;1.20;99.90
37378;DHT22;23248;48.120;14.854;2022-12-26T06:32:24;1.10;99.90
37378;DHT22;23248;48.120;14.854;2022-12-26T06:34:49;1.10;99.90
37378;DHT22;23248;48.120;14.854;2022-12-26T06:37:15;1.20;99.90
37378;DHT22;23248;48.120;14.854;2022-12-26T06:39:41;1.10;99.90
37378;DHT22;23248;48.120;14.854;2022-12-26T06:42:06;1.10;99.90
37378;DHT22;23248;48.120;14.854;2022-12-26T06:44:32;1.10;99.90
37378;DHT22;23248;48.120;14.854;2022-12-26T06:46:57;1.10;99.90
37378;DHT22;23248;48.120;14.854;2022-12-26T06:49:23;1.10;99.90
37378;DHT22;23248;48.120;14.854;2022-12-26T06:51:50;1.10;99.90
37378;DHT22;23248;48.120;14.854;2022-12-26T06:54:16;1.20;99.90
37378;DHT22;23248;48.120;14.854;2022-12-26T06:56:41;1.40;99.90
37378;DHT22;23248;48.120;14.854;2022-12-26T06:59:09;1.50;99.90
37378;DHT22;23248;48.120;14.854;2022-12-26T07:01:35;1.50;99.90
37378;DHT22;23248;48.120;14.854;2022-12-26T07:04:01;1.40;99.90
37378;DHT22;23248;48.120;14.854;2022-12-26T07:06:29;1.40;99.90
37378;DHT22;23248;48.120;14.854;2022-12-26T07:08:56;1.40;99.90
37378;DHT22;23248;48.120;14.854;2022-12-26T07:11:23;1.40;99.90
37378;DHT22;23248;48.120;14.854;2022-12-26T07:13:49;1.40;99.90
37378;DHT22;23248;48.120;14.854;2022-12-26T07:16:14;1.40;99.90
37378;DHT22;23248;48.120;14.854;2022-12-26T07:18:40;1.40;99.90
37378;DHT22;23248;48.120;14.854;2022-12-26T07:21:06;1.40;99.90
37378;DHT22;23248;48.120;14.854;2022-12-26T07:23:32;1.40;99.90
37378;DHT22;23248;48.120;14.854;2022-12-26T07:25:58;1.40;99.90
37378;DHT22;23248;48.120;14.854;2022-12-26T07:28:24;1.40;99.90
37378;DHT22;23248;48.120;14.854;2022-12-26T07:30:49;1.40;99.90
37378;DHT22;23248;48.120;14.854;2022-12-26T07:33:15;1.40;99.90
37378;DHT22;23248;48.120;14.854;2022-12-26T07:35:41;1.40;99.90
37378;DHT22;23248;48.120;14.854;2022-12-26T07:38:06;1.40;99.90
37378;DHT22;23248;48.120;14.854;2022-12-26T07:40:32;1.40;99.90
37378;DHT22;23248;48.120;14.854;2022-12-26T07:42:58;1.50;99.90
37378;DHT22;23248;48.120;14.854;2022-12-26T07:45:23;1.50;99.90
37378;DHT22;23248;48.120;14.854;2022-12-26T07:47:52;1.50;99.90
37378;DHT22;23248;48.120;14.854;2022-12-26T07:50:18;1.50;99.90
37378;DHT22;23248;48.120;14.854;2022-12-26T07:52:44;1.50;99.90
37378;DHT22;23248;48.120;14.854;2022-12-26T07:55:09;1.50;99.90
37378;DHT22;23248;48.120;14.854;2022-12-26T07:57:35;1.50;99.90
37378;DHT22;23248;48.120;14.854;2022-12-26T08:00:00;1.40;99.90
37378;DHT22;23248;48.120;14.854;2022-12-26T08:02:26;1.50;99.90
37378;DHT22;23248;48.120;14.854;2022-12-26T08:04:51;1.60;99.90
37378;DHT22;23248;48.120;14.854;2022-12-26T08:07:17;1.60;99.90
37378;DHT22;23248;48.120;14.854;2022-12-26T08:09:43;1.60;99.90
37378;DHT22;23248;48.120;14.854;2022-12-26T08:12:09;1.70;99.90
37378;DHT22;23248;48.120;14.854;2022-12-26T08:14:38;1.70;99.90
37378;DHT22;23248;48.120;14.854;2022-12-26T08:17:03;1.80;99.90
37378;DHT22;23248;48.120;14.854;2022-12-26T08:19:29;2.00;99.90
37378;DHT22;23248;48.120;14.854;2022-12-26T08:21:54;2.10;99.90
37378;DHT22;23248;48.120;14.854;2022-12-26T08:24:20;2.20;99.90
37378;DHT22;23248;48.120;14.854;2022-12-26T08:26:45;2.30;99.90
37378;DHT22;23248;48.120;14.854;2022-12-26T08:29:11;2.30;99.90
37378;DHT22;23248;48.120;14.854;2022-12-26T08:31:37;2.30;99.90
37378;DHT22;23248;48.120;14.854;2022-12-26T08:34:03;2.30;99.90
37378;DHT22;23248;48.120;14.854;2022-12-26T08:36:29;2.30;99.90
37378;DHT22;23248;48.120;14.854;2022-12-26T08:38:54;2.20;99.90
37378;DHT22;23248;48.120;14.854;2022-12-26T08:41:20;2.10;99.90
37378;DHT22;23248;48.120;14.854;2022-12-26T08:43:49;2.10;99.90
37378;DHT22;23248;48.120;14.854;2022-12-26T08:46:14;2.20;99.90
37378;DHT22;23248;48.120;14.854;2022-12-26T08:48:40;2.30;99.90
37378;DHT22;23248;48.120;14.854;2022-12-26T08:51:07;2.30;99.90
37378;DHT22;23248;48.120;14.854;2022-12-26T08:53:33;2.40;99.90
37378;DHT22;23248;48.120;14.854;2022-12-26T08:56:04;2.50;99.90
37378;DHT22;23248;48.120;14.854;2022-12-26T08:58:29;2.60;99.90
37378;DHT22;23248;48.120;14.854;2022-12-26T09:01:00;2.80;99.90
37378;DHT22;23248;48.120;14.854;2022-12-26T09:03:29;2.90;99.90
37378;DHT22;23248;48.120;14.854;2022-12-26T09:05:57;2.90;99.90
37378;DHT22;23248;48.120;14.854;2022-12-26T09:08:23;3.00;99.90
37378;DHT22;23248;48.120;14.854;2022-12-26T09:10:48;3.10;99.90
37378;DHT22;23248;48.120;14.854;2022-12-26T09:13:14;3.20;99.90
37378;DHT22;23248;48.120;14.854;2022-12-26T09:15:40;3.30;99.90
37378;DHT22;23248;48.120;14.854;2022-12-26T09:18:05;3.40;99.90
37378;DHT22;23248;48.120;14.854;2022-12-26T09:20:32;3.50;99.90
37378;DHT22;23248;48.120;14.854;2022-12-26T09:22:58;3.60;99.90
37378;DHT22;23248;48.120;14.854;2022-12-26T09:25:24;3.60;99.90
37378;DHT22;23248;48.120;14.854;2022-12-26T09:27:50;3.70;99.90
37378;DHT22;23248;48.120;14.854;2022-12-26T09:30:18;3.80;99.90
37378;DHT22;23248;48.120;14.854;2022-12-26T09:32:45;3.90;99.90
37378;DHT22;23248;48.120;14.854;2022-12-26T09:35:11;4.10;99.90
37378;DHT22;23248;48.120;14.854;2022-12-26T09:37:36;4.20;99.90
37378;DHT22;23248;48.120;14.854;2022-12-26T09:40:02;4.30;99.90
37378;DHT22;23248;48.120;14.854;2022-12-26T09:45:31;4.60;99.90
37378;DHT22;23248;48.120;14.854;2022-12-26T09:48:03;4.70;99.90
37378;DHT22;23248;48.120;14.854;2022-12-26T09:50:32;4.80;99.90
37378;DHT22;23248;48.120;14.854;2022-12-26T09:53:00;4.80;99.90
37378;DHT22;23248;48.120;14.854;2022-12-26T09:58:17;4.80;99.90
37378;DHT22;23248;48.120;14.854;2022-12-26T10:00:47;4.90;99.90
37378;DHT22;23248;48.120;14.854;2022-12-26T10:03:14;5.10;99.90
37378;DHT22;23248;48.120;14.854;2022-12-26T10:05:44;5.30;99.90
37378;DHT22;23248;48.120;14.854;2022-12-26T10:08:22;5.50;99.90
37378;DHT22;23248;48.120;14.854;2022-12-26T10:10:57;5.80;99.90
37378;DHT22;23248;48.120;14.854;2022-12-26T10:15:56;6.10;99.90
37378;DHT22;23248;48.120;14.854;2022-12-26T10:21:14;6.40;99.90
37378;DHT22;23248;48.120;14.854;2022-12-26T10:23:44;6.40;99.90
37378;DHT22;23248;48.120;14.854;2022-12-26T10:36:34;6.70;99.90
37378;DHT22;23248;48.120;14.854;2022-12-26T10:39:01;6.80;99.90
37378;DHT22;23248;48.120;14.854;2022-12-26T10:41:33;6.80;99.90
37378;DHT22;23248;48.120;14.854;2022-12-26T10:43:59;6.80;99.90
37378;DHT22;23248;48.120;14.854;2022-12-26T10:46:33;6.80;99.90
37378;DHT22;23248;48.120;14.854;2022-12-26T10:49:04;6.70;99.90
37378;DHT22;23248;48.120;14.854;2022-12-26T10:51:32;6.70;99.90
37378;DHT22;23248;48.120;14.854;2022-12-26T10:53:58;6.70;99.90
37378;DHT22;23248;48.120;14.854;2022-12-26T10:56:24;6.70;99.90
37378;DHT22;23248;48.120;14.854;2022-12-26T10:58:58;6.60;99.90
37378;DHT22;23248;48.120;14.854;2022-12-26T11:03:53;6.60;99.90
37378;DHT22;23248;48.120;14.854;2022-12-26T11:06:19;6.70;99.90
37378;DHT22;23248;48.120;14.854;2022-12-26T11:08:46;6.80;99.90
37378;DHT22;23248;48.120;14.854;2022-12-26T11:11:22;6.90;99.90
37378;DHT22;23248;48.120;14.854;2022-12-26T11:13:53;7.10;99.90
37378;DHT22;23248;48.120;14.854;2022-12-26T11:16:37;7.10;99.90
37378;DHT22;23248;48.120;14.854;2022-12-26T11:19:04;7.20;99.90
37378;DHT22;23248;48.120;14.854;2022-12-26T11:21:31;7.20;99.90
37378;DHT22;23248;48.120;14.854;2022-12-26T11:24:11;7.30;99.90
37378;DHT22;23248;48.120;14.854;2022-12-26T11:26:40;7.40;99.90
37378;DHT22;23248;48.120;14.854;2022-12-26T11:29:19;7.50;99.90
37378;DHT22;23248;48.120;14.854;2022-12-26T11:32:00;7.60;99.90
37378;DHT22;23248;48.120;14.854;2022-12-26T11:36:59;7.60;99.90
37378;DHT22;23248;48.120;14.854;2022-12-26T11:39:26;7.60;99.90
37378;DHT22;23248;48.120;14.854;2022-12-26T11:41:52;7.60;99.90
37378;DHT22;23248;48.120;14.854;2022-12-26T11:44:23;7.50;99.90
37378;DHT22;23248;48.120;14.854;2022-12-26T11:46:59;7.40;99.90
37378;DHT22;23248;48.120;14.854;2022-12-26T11:49:27;7.40;99.90
37378;DHT22;23248;48.120;14.854;2022-12-26T11:51:54;7.50;99.90
37378;DHT22;23248;48.120;14.854;2022-12-26T11:54:25;7.50;99.90
37378;DHT22;23248;48.120;14.854;2022-12-26T11:56:59;7.60;99.90
37378;DHT22;23248;48.120;14.854;2022-12-26T11:59:25;7.70;99.90
37378;DHT22;23248;48.120;14.854;2022-12-26T12:04:35;7.90;99.90
37378;DHT22;23248;48.120;14.854;2022-12-26T12:07:06;8.10;99.90
37378;DHT22;23248;48.120;14.854;2022-12-26T12:14:33;8.50;99.90
37378;DHT22;23248;48.120;14.854;2022-12-26T12:24:55;9.10;99.90
37378;DHT22;23248;48.120;14.854;2022-12-26T12:27:27;9.30;99.90
37378;DHT22;23248;48.120;14.854;2022-12-26T12:40:47;10.10;99.90
37378;DHT22;23248;48.120;14.854;2022-12-26T12:53:58;10.80;99.90
37378;DHT22;23248;48.120;14.854;2022-12-26T12:56:41;10.90;99.90
37378;DHT22;23248;48.120;14.854;2022-12-26T13:01:54;10.90;99.90
37378;DHT22;23248;48.120;14.854;2022-12-26T13:04:37;11.00;99.90
37378;DHT22;23248;48.120;14.854;2022-12-26T13:07:04;10.90;99.90
37378;DHT22;23248;48.120;14.854;2022-12-26T13:09:36;10.90;99.90
37378;DHT22;23248;48.120;14.854;2022-12-26T13:12:03;11.00;99.90
37378;DHT22;23248;48.120;14.854;2022-12-26T13:14:32;11.00;99.90
37378;DHT22;23248;48.120;14.854;2022-12-26T13:17:10;11.00;99.90
37378;DHT22;23248;48.120;14.854;2022-12-26T13:19:42;11.00;99.90
37378;DHT22;23248;48.120;14.854;2022-12-26T13:25:22;10.60;99.90
37378;DHT22;23248;48.120;14.854;2022-12-26T13:27:50;10.40;99.90
37378;DHT22;23248;48.120;14.854;2022-12-26T13:30:17;10.30;99.90
37378;DHT22;23248;48.120;14.854;2022-12-26T13:32:43;10.20;99.90
37378;DHT22;23248;48.120;14.854;2022-12-26T13:35:45;10.30;99.90
37378;DHT22;23248;48.120;14.854;2022-12-26T13:37:55;10.50;99.90
37378;DHT22;23248;48.120;14.854;2022-12-26T13:40:23;10.70;99.90
37378;DHT22;23248;48.120;14.854;2022-12-26T13:47:59;11.50;99.90
37378;DHT22;23248;48.120;14.854;2022-12-26T13:55:50;11.10;99.90
37378;DHT22;23248;48.120;14.854;2022-12-26T13:58:28;10.90;99.90
37378;DHT22;23248;48.120;14.854;2022-12-26T14:03:50;10.40;99.90
37378;DHT22;23248;48.120;14.854;2022-12-26T14:22:14;9.10;99.90
37378;DHT22;23248;48.120;14.854;2022-12-26T14:29:47;8.70;99.90
37378;DHT22;23248;48.120;14.854;2022-12-26T14:35:08;8.40;99.90
37378;DHT22;23248;48.120;14.854;2022-12-26T14:40:06;8.10;99.90
37378;DHT22;23248;48.120;14.854;2022-12-26T14:42:59;7.80;99.90
37378;DHT22;23248;48.120;14.854;2022-12-26T14:45:38;7.30;99.90
37378;DHT22;23248;48.120;14.854;2022-12-26T14:50:49;6.20;99.90
37378;DHT22;23248;48.120;14.854;2022-12-26T15:00:53;5.80;99.90
37378;DHT22;23248;48.120;14.854;2022-12-26T15:03:32;5.80;99.90
37378;DHT22;23248;48.120;14.854;2022-12-26T15:08:39;6.00;99.90
37378;DHT22;23248;48.120;14.854;2022-12-26T15:16:42;6.30;99.90
37378;DHT22;23248;48.120;14.854;2022-12-26T15:22:07;6.40;99.90
37378;DHT22;23248;48.120;14.854;2022-12-26T15:27:11;6.40;99.90
37378;DHT22;23248;48.120;14.854;2022-12-26T15:32:15;6.50;99.90
37378;DHT22;23248;48.120;14.854;2022-12-26T15:40:09;6.50;99.90
37378;DHT22;23248;48.120;14.854;2022-12-26T15:45:42;6.60;99.90
37378;DHT22;23248;48.120;14.854;2022-12-26T15:48:12;6.60;99.90
37378;DHT22;23248;48.120;14.854;2022-12-26T15:53:24;6.80;99.90
37378;DHT22;23248;48.120;14.854;2022-12-26T15:55:56;6.90;99.90
37378;DHT22;23248;48.120;14.854;2022-12-26T15:58:35;7.10;99.90
37378;DHT22;23248;48.120;14.854;2022-12-26T16:01:07;7.40;99.90
37378;DHT22;23248;48.120;14.854;2022-12-26T16:17:35;8.80;99.90
37378;DHT22;23248;48.120;14.854;2022-12-26T16:19:53;8.90;99.90
37378;DHT22;23248;48.120;14.854;2022-12-26T16:22:30;8.90;99.90
37378;DHT22;23248;48.120;14.854;2022-12-26T16:25:14;9.00;99.90
37378;DHT22;23248;48.120;14.854;2022-12-26T16:27:40;9.00;99.90
37378;DHT22;23248;48.120;14.854;2022-12-26T16:30:07;9.00;99.90
37378;DHT22;23248;48.120;14.854;2022-12-26T16:32:38;9.00;99.90
37378;DHT22;23248;48.120;14.854;2022-12-26T16:35:05;8.90;99.90
37378;DHT22;23248;48.120;14.854;2022-12-26T16:37:31;8.90;99.90
37378;DHT22;23248;48.120;14.854;2022-12-26T16:42:43;8.90;99.90
37378;DHT22;23248;48.120;14.854;2022-12-26T16:45:16;8.90;99.90
37378;DHT22;23248;48.120;14.854;2022-12-26T16:47:42;8.80;99.90
37378;DHT22;23248;48.120;14.854;2022-12-26T16:50:13;8.90;99.90
37378;DHT22;23248;48.120;14.854;2022-12-26T16:52:39;8.90;99.90
37378;DHT22;23248;48.120;14.854;2022-12-26T16:55:53;8.90;99.90
37378;DHT22;23248;48.120;14.854;2022-12-26T16:57:52;8.90;99.90
37378;DHT22;23248;48.120;14.854;2022-12-26T17:00:20;8.90;99.90
37378;DHT22;23248;48.120;14.854;2022-12-26T17:02:47;8.90;99.90
37378;DHT22;23248;48.120;14.854;2022-12-26T17:05:21;8.90;99.90
37378;DHT22;23248;48.120;14.854;2022-12-26T17:07:48;8.90;99.90
37378;DHT22;23248;48.120;14.854;2022-12-26T17:10:22;8.90;99.90
37378;DHT22;23248;48.120;14.854;2022-12-26T17:12:48;8.90;99.90
37378;DHT22;23248;48.120;14.854;2022-12-26T17:15:18;8.90;99.90
37378;DHT22;23248;48.120;14.854;2022-12-26T17:17:45;8.90;99.90
37378;DHT22;23248;48.120;14.854;2022-12-26T17:22:46;8.70;99.90
37378;DHT22;23248;48.120;14.854;2022-12-26T17:25:20;8.60;99.90
37378;DHT22;23248;48.120;14.854;2022-12-26T17:30:31;8.60;99.90
37378;DHT22;23248;48.120;14.854;2022-12-26T17:33:04;8.60;99.90
37378;DHT22;23248;48.120;14.854;2022-12-26T17:35:34;8.60;99.90
37378;DHT22;23248;48.120;14.854;2022-12-26T17:38:00;8.50;99.90
37378;DHT22;23248;48.120;14.854;2022-12-26T17:40:28;8.50;99.90
37378;DHT22;23248;48.120;14.854;2022-12-26T17:43:02;8.50;99.90
37378;DHT22;23248;48.120;14.854;2022-12-26T17:45:28;8.60;99.90
37378;DHT22;23248;48.120;14.854;2022-12-26T17:47:54;8.50;99.90
37378;DHT22;23248;48.120;14.854;2022-12-26T17:50:21;8.50;99.90
37378;DHT22;23248;48.120;14.854;2022-12-26T17:52:47;8.50;99.90
37378;DHT22;23248;48.120;14.854;2022-12-26T17:55:22;8.60;99.90
37378;DHT22;23248;48.120;14.854;2022-12-26T17:57:50;8.60;99.90
37378;DHT22;23248;48.120;14.854;2022-12-26T18:00:21;8.60;99.90
37378;DHT22;23248;48.120;14.854;2022-12-26T18:02:47;8.60;99.90
37378;DHT22;23248;48.120;14.854;2022-12-26T18:05:13;8.60;99.90
37378;DHT22;23248;48.120;14.854;2022-12-26T18:07:39;8.60;99.90
37378;DHT22;23248;48.120;14.854;2022-12-26T18:10:06;8.70;99.90
37378;DHT22;23248;48.120;14.854;2022-12-26T18:12:34;8.70;99.90
37378;DHT22;23248;48.120;14.854;2022-12-26T18:15:00;8.70;99.90
37378;DHT22;23248;48.120;14.854;2022-12-26T18:17:26;8.70;99.90
37378;DHT22;23248;48.120;14.854;2022-12-26T18:19:51;8.70;99.90
37378;DHT22;23248;48.120;14.854;2022-12-26T18:22:18;8.70;99.90
37378;DHT22;23248;48.120;14.854;2022-12-26T18:24:44;8.70;99.90
37378;DHT22;23248;48.120;14.854;2022-12-26T18:27:19;8.70;99.90
37378;DHT22;23248;48.120;14.854;2022-12-26T18:29:45;8.70;99.90
37378;DHT22;23248;48.120;14.854;2022-12-26T18:32:22;8.70;99.90
37378;DHT22;23248;48.120;14.854;2022-12-26T18:34:48;8.70;99.90
37378;DHT22;23248;48.120;14.854;2022-12-26T18:37:14;8.70;99.90
37378;DHT22;23248;48.120;14.854;2022-12-26T18:39:40;8.70;99.90
37378;DHT22;23248;48.120;14.854;2022-12-26T18:42:05;8.70;99.90
37378;DHT22;23248;48.120;14.854;2022-12-26T18:44:31;8.70;99.90
37378;DHT22;23248;48.120;14.854;2022-12-26T18:46:57;8.70;99.90
37378;DHT22;23248;48.120;14.854;2022-12-26T18:49:23;8.70;99.90
37378;DHT22;23248;48.120;14.854;2022-12-26T18:51:50;8.70;99.90
37378;DHT22;23248;48.120;14.854;2022-12-26T18:54:15;8.70;99.90
37378;DHT22;23248;48.120;14.854;2022-12-26T18:56:41;8.80;99.90
37378;DHT22;23248;48.120;14.854;2022-12-26T18:59:07;8.80;99.90
37378;DHT22;23248;48.120;14.854;2022-12-26T19:01:33;8.90;99.90
37378;DHT22;23248;48.120;14.854;2022-12-26T19:03:59;9.00;99.90
37378;DHT22;23248;48.120;14.854;2022-12-26T19:06:25;9.00;99.90
37378;DHT22;23248;48.120;14.854;2022-12-26T19:08:52;9.10;99.90
37378;DHT22;23248;48.120;14.854;2022-12-26T19:11:17;9.10;99.90
37378;DHT22;23248;48.120;14.854;2022-12-26T19:13:43;9.20;99.90